createdAt,value
2018-04-22T00:00:03.003Z,10.6
2018-04-22T00:15:02.363Z,10.6
2018-04-22T00:30:02.750Z,10.5
2018-04-22T00:45:02.999Z,10.5
2018-04-22T01:00:02.335Z,10.4
2018-04-22T01:15:02.605Z,10.4
2018-04-22T01:30:02.938Z,10.4
2018-04-22T01:45:03.228Z,10.4
2018-04-22T02:00:02.388Z,10.3
2018-04-22T02:15:02.688Z,10.3
2018-04-22T02:30:03.003Z,10.3
2018-04-22T02:45:02.351Z,10.2
2018-04-22T03:00:02.694Z,10.2
2018-04-22T03:15:02.993Z,10.2
2018-04-22T03:30:02.390Z,10.2
2018-04-22T03:45:02.683Z,10.2
2018-04-22T04:00:03.015Z,10.2
2018-04-22T04:15:02.351Z,10.2
2018-04-22T04:30:02.733Z,10.2
2018-04-22T04:45:03.017Z,10.2
2018-04-22T05:00:02.436Z,10.2
2018-04-22T05:15:02.745Z,10.2
2018-04-22T05:30:03.104Z,10.2
2018-04-22T05:45:02.446Z,10.2
2018-04-22T06:00:02.746Z,10.2
2018-04-22T06:15:03.000Z,10.3
2018-04-22T06:30:02.518Z,10.4
2018-04-22T06:45:02.874Z,10.4
2018-04-22T07:00:02.592Z,10.4
2018-04-22T07:15:02.929Z,10.5
2018-04-22T07:30:02.383Z,10.6
2018-04-22T07:45:02.752Z,10.6
2018-04-22T08:00:03.004Z,10.8
2018-04-22T08:15:02.411Z,10.8
2018-04-22T08:30:02.794Z,10.9
2018-04-22T08:45:03.039Z,11
2018-04-22T09:00:02.391Z,11.1
2018-04-22T09:15:02.734Z,11.1
2018-04-22T09:30:03.041Z,11.2
2018-04-22T09:45:02.437Z,11.2
2018-04-22T10:00:02.808Z,11.4
2018-04-22T10:15:03.257Z,11.4
2018-04-22T10:30:02.733Z,11.5
2018-04-22T10:45:03.010Z,11.6
2018-04-22T11:00:02.464Z,11.6
2018-04-22T11:15:02.784Z,11.7
2018-04-22T11:30:03.090Z,11.8
2018-04-22T11:45:02.479Z,11.9
2018-04-22T12:00:02.761Z,11.9
2018-04-22T12:15:03.126Z,12
2018-04-22T12:30:02.486Z,12.1
2018-04-22T12:45:02.790Z,12.1
2018-04-22T13:00:03.033Z,12.1
2018-04-22T13:15:02.360Z,12.2
2018-04-22T13:30:02.704Z,12.2
2018-04-22T13:45:02.966Z,12.2
2018-04-22T14:00:02.288Z,12.3
2018-04-22T14:15:02.568Z,12.3
2018-04-22T14:30:02.960Z,12.3
2018-04-22T14:45:02.276Z,12.4
2018-04-22T15:00:02.578Z,12.4
2018-04-22T15:15:02.853Z,12.4
2018-04-22T15:30:03.259Z,12.4
2018-04-22T15:45:02.567Z,12.3
2018-04-22T16:00:02.919Z,12.3
2018-04-22T16:15:39.595Z,12.3
2018-04-22T16:30:02.968Z,12.2
2018-04-22T16:45:02.217Z,12.2
2018-04-22T17:00:02.444Z,12.1
2018-04-22T17:15:02.863Z,12.1
2018-04-22T17:30:02.293Z,12
2018-04-22T17:45:02.596Z,11.9
2018-04-22T18:00:02.839Z,11.9
2018-04-22T18:15:03.185Z,11.8
2018-04-22T18:30:02.514Z,11.7
2018-04-22T18:45:02.774Z,11.6
2018-04-22T19:00:03.001Z,11.6
2018-04-22T19:15:02.312Z,11.5
2018-04-22T19:30:02.685Z,11.4
2018-04-22T19:45:02.954Z,11.3
2018-04-22T20:00:03.244Z,11.2
2018-04-22T20:15:02.580Z,11.2
2018-04-22T20:30:02.904Z,11.1
2018-04-22T20:45:03.189Z,11
2018-04-22T21:00:02.462Z,10.9
2018-04-22T21:15:02.784Z,10.9
2018-04-22T21:30:03.144Z,10.8
2018-04-22T21:45:02.470Z,10.8
2018-04-22T22:00:02.727Z,10.7
2018-04-22T22:15:03.018Z,10.7
2018-04-22T22:30:02.504Z,10.6
2018-04-22T22:45:02.773Z,10.6
2018-04-22T23:00:02.984Z,10.5
2018-04-22T23:15:02.354Z,10.5
2018-04-22T23:30:02.765Z,10.4
2018-04-22T23:45:02.999Z,10.4
